createdAt,value
2022-09-24T00:01:40.387Z,94036.81
2022-09-24T00:06:46.257Z,94029.78
2022-09-24T00:11:52.848Z,94027.31
2022-09-24T00:16:56.222Z,94007.69
2022-09-24T00:21:59.554Z,94019.28
2022-09-24T00:27:03.821Z,94026.66
2022-09-24T00:32:07.058Z,94018.28
2022-09-24T00:37:11.308Z,94015.09
2022-09-24T00:42:14.824Z,94014.22
2022-09-24T00:47:33.773Z,94010.75
2022-09-24T00:52:43.142Z,94004.72
2022-09-24T00:57:49.284Z,94007.38
2022-09-24T01:02:59.077Z,94006.22
2022-09-24T01:08:02.831Z,94012.31
2022-09-24T01:13:24.830Z,94017.69
2022-09-24T01:19:11.596Z,94014.94
2022-09-24T01:24:20.187Z,94011.72
2022-09-24T01:29:32.621Z,94012.41
2022-09-24T01:34:48.164Z,94009.69
2022-09-24T01:39:54.673Z,94006.91
2022-09-24T01:44:58.624Z,94006.41
2022-09-24T01:50:03.369Z,94013.41
2022-09-24T01:55:11.460Z,94002.09
2022-09-24T02:00:17.322Z,94008.66
2022-09-24T02:05:32.556Z,94010.91
2022-09-24T02:10:49.141Z,94020.16
2022-09-24T02:15:58.293Z,94015.44
2022-09-24T02:21:06.816Z,94017.69
2022-09-24T02:26:10.985Z,94018.41
2022-09-24T02:31:27.746Z,94020.28
2022-09-24T02:36:32.970Z,94026.88
2022-09-24T02:41:37.153Z,94024.13
2022-09-24T02:46:41.988Z,94027.97
2022-09-24T02:51:45.774Z,94027.97
2022-09-24T02:56:49.838Z,94029.84
2022-09-24T03:01:53.682Z,94023.53
2022-09-24T03:06:57.011Z,94029.38
2022-09-24T03:12:00.814Z,94018.03
2022-09-24T03:17:04.152Z,94027.22
2022-09-24T03:22:08.149Z,94026.72
2022-09-24T03:27:11.724Z,94023.88
2022-09-24T03:32:14.687Z,94025.38
2022-09-24T03:37:18.374Z,94026.25
2022-09-24T03:42:21.345Z,94032.16
2022-09-24T03:47:25.005Z,94034.25
2022-09-24T03:52:28.821Z,94034.88
2022-09-24T03:57:31.807Z,94032.22
2022-09-24T04:02:35.645Z,94031.28
2022-09-24T04:07:39.337Z,94031.63
2022-09-24T04:12:44.116Z,94024.91
2022-09-24T04:17:51.490Z,94024.38
2022-09-24T04:22:57.178Z,94034.44
2022-09-24T04:28:06.428Z,94039.13
2022-09-24T04:33:09.763Z,94040.41
2022-09-24T04:38:13.899Z,94044.44
2022-09-24T04:43:19.483Z,94049.63
2022-09-24T04:48:23.586Z,94052.44
2022-09-24T04:53:27.791Z,94050.81
2022-09-24T04:58:30.881Z,94051.16
2022-09-24T05:03:34.357Z,94058.16
2022-09-24T05:08:37.316Z,94061.53
2022-09-24T05:13:40.220Z,94068.84
2022-09-24T05:18:44.228Z,94065.53
2022-09-24T05:23:48.392Z,94069.44
2022-09-24T05:28:54.231Z,94071.72
2022-09-24T05:33:58.162Z,94072.53
2022-09-24T05:39:02.238Z,94071.06
2022-09-24T05:44:05.910Z,94078.13
2022-09-24T05:49:09.886Z,94084.47
2022-09-24T05:54:12.882Z,94093.69
2022-09-24T05:59:16.709Z,94091.28
2022-09-24T06:04:20.084Z,94093.16
2022-09-24T06:09:23.060Z,94095.97
2022-09-24T06:14:27.044Z,94091.94
2022-09-24T06:19:30.557Z,94090.22
2022-09-24T06:24:33.459Z,94091.78
2022-09-24T06:29:36.591Z,94102.94
2022-09-24T06:34:39.501Z,94109.66
2022-09-24T06:39:43.020Z,94100.59
2022-09-24T06:44:46.018Z,94110.44
2022-09-24T06:49:50.795Z,94115.16
2022-09-24T06:54:56.190Z,94127.06
2022-09-24T06:59:59.318Z,94122.44
2022-09-24T07:05:02.607Z,94138.59
2022-09-24T07:10:08.480Z,94141.16
2022-09-24T07:15:11.852Z,94138.84
2022-09-24T07:20:15.218Z,94149.03
2022-09-24T07:25:18.843Z,94144.69
2022-09-24T07:30:22.353Z,94150.59
2022-09-24T07:35:28.029Z,94138.81
2022-09-24T07:40:31.918Z,94144.72
2022-09-24T07:45:35.163Z,94140.00
2022-09-24T07:50:41.241Z,94153.00
2022-09-24T07:55:45.698Z,94145.59
2022-09-24T08:00:49.220Z,94152.00
2022-09-24T08:05:57.561Z,94149.00
2022-09-24T08:11:04.705Z,94148.50
2022-09-24T08:16:08.353Z,94153.88
2022-09-24T08:21:13.577Z,94151.44
2022-09-24T08:26:17.203Z,94149.53
2022-09-24T08:31:20.181Z,94155.00
2022-09-24T08:36:23.307Z,94150.16
2022-09-24T08:41:50.373Z,94163.75
2022-09-24T08:47:16.003Z,94165.13
2022-09-24T08:52:40.312Z,94151.06
2022-09-24T08:58:01.352Z,94154.66
2022-09-24T09:03:51.985Z,94159.75
2022-09-24T09:09:07.333Z,94161.81
2022-09-24T09:14:20.331Z,94157.59
2022-09-24T09:19:30.864Z,94156.22
2022-09-24T09:24:49.111Z,94156.53
2022-09-24T09:29:58.377Z,94146.25
2022-09-24T09:35:20.228Z,94142.78
2022-09-24T09:40:48.659Z,94140.97
2022-09-24T09:46:03.763Z,94140.19
2022-09-24T09:51:07.883Z,94128.16
2022-09-24T09:56:11.350Z,94123.53
2022-09-24T10:01:18.898Z,94137.91
2022-09-24T10:06:28.240Z,94125.75
2022-09-24T10:11:32.655Z,94144.25
2022-09-24T10:16:44.885Z,94135.50
2022-09-24T10:21:48.847Z,94126.44
2022-09-24T10:26:53.111Z,94129.22
2022-09-24T10:31:56.524Z,94121.78
2022-09-24T10:37:07.230Z,94119.25
2022-09-24T10:42:29.565Z,94120.31
2022-09-24T10:47:46.077Z,94118.25
2022-09-24T10:52:58.721Z,94116.22
2022-09-24T10:58:32.925Z,94110.38
2022-09-24T11:03:59.086Z,94107.03
2022-09-24T11:09:34.720Z,94106.91
2022-09-24T11:14:49.459Z,94107.84
2022-09-24T11:20:11.238Z,94106.44
2022-09-24T11:25:34.504Z,94095.53
2022-09-24T11:31:28.535Z,94084.91
2022-09-24T11:37:14.694Z,94082.06
2022-09-24T11:42:29.893Z,94072.69
2022-09-24T11:47:54.544Z,94076.53
2022-09-24T11:53:03.460Z,94065.91
2022-09-24T11:58:14.526Z,94060.84
2022-09-24T12:03:26.709Z,94053.78
2022-09-24T12:08:34.585Z,94048.47
2022-09-24T12:13:52.575Z,94045.94
2022-09-24T12:19:24.398Z,94052.16
2022-09-24T12:24:52.861Z,94058.50
2022-09-24T12:30:42.386Z,94055.31
2022-09-24T12:36:04.811Z,94031.66
2022-09-24T12:41:31.919Z,94032.28
2022-09-24T12:46:50.728Z,94037.38
2022-09-24T12:51:59.762Z,94021.25
2022-09-24T12:57:13.137Z,94021.09
2022-09-24T13:02:22.235Z,94019.06
2022-09-24T13:07:36.724Z,94018.72
2022-09-24T13:12:39.940Z,94019.03
2022-09-24T13:17:43.071Z,93991.53
2022-09-24T13:22:58.407Z,93998.38
2022-09-24T13:28:04.683Z,93996.69
2022-09-24T13:33:24.312Z,93987.94
2022-09-24T13:38:36.539Z,93985.94
2022-09-24T13:43:48.087Z,93992.66
2022-09-24T13:49:04.096Z,94001.59
2022-09-24T13:54:33.253Z,93987.78
2022-09-24T13:59:37.894Z,93991.66
2022-09-24T14:04:43.597Z,93994.34
2022-09-24T14:09:48.720Z,93982.69
2022-09-24T14:14:57.648Z,93989.03
2022-09-24T14:20:00.643Z,93984.50
2022-09-24T14:25:07.856Z,93970.69
2022-09-24T14:30:24.222Z,93982.84
2022-09-24T14:35:35.169Z,93985.00
2022-09-24T14:40:53.728Z,93990.38
2022-09-24T14:46:04.467Z,93986.56
2022-09-24T14:51:28.691Z,93977.25
2022-09-24T14:56:35.212Z,93975.53
2022-09-24T15:01:38.828Z,93987.13
2022-09-24T15:06:47.836Z,93989.19
2022-09-24T15:11:54.667Z,93985.78
2022-09-24T15:17:19.963Z,93989.25
2022-09-24T15:22:22.897Z,93986.41
2022-09-24T15:27:32.324Z,93987.31
2022-09-24T15:32:36.231Z,93988.78
2022-09-24T15:37:40.405Z,93981.13
2022-09-24T15:42:43.899Z,93992.66
2022-09-24T15:47:47.082Z,93985.69
2022-09-24T15:52:55.241Z,93984.72
2022-09-24T15:57:58.500Z,93997.41
2022-09-24T16:03:02.316Z,93997.75
2022-09-24T16:08:05.721Z,93992.03
2022-09-24T16:13:10.854Z,93991.84
2022-09-24T16:18:15.690Z,93994.06
2022-09-24T16:23:19.600Z,93987.56
2022-09-24T16:28:22.870Z,93980.16
2022-09-24T16:33:27.707Z,93981.47
2022-09-24T16:38:35.562Z,93981.25
2022-09-24T16:43:40.113Z,93978.34
2022-09-24T16:48:44.922Z,93974.97
2022-09-24T16:53:51.723Z,93975.31
2022-09-24T16:58:55.197Z,93978.28
2022-09-24T17:04:00.435Z,93974.09
2022-09-24T17:09:22.805Z,93976.81
2022-09-24T17:14:26.818Z,93965.13
2022-09-24T17:19:30.054Z,93964.59
2022-09-24T17:24:34.717Z,93972.63
2022-09-24T17:29:38.289Z,93973.31
2022-09-24T17:34:45.715Z,93973.19
2022-09-24T17:39:50.152Z,93985.13
2022-09-24T17:44:53.879Z,93993.22
2022-09-24T17:49:57.765Z,93991.22
2022-09-24T17:55:01.111Z,93993.63
2022-09-24T18:00:06.054Z,93995.75
2022-09-24T18:05:14.985Z,94004.22
2022-09-24T18:10:18.827Z,94007.16
2022-09-24T18:15:23.109Z,94009.16
2022-09-24T18:20:27.432Z,94000.78
2022-09-24T18:25:30.501Z,94003.16
2022-09-24T18:30:33.558Z,94012.06
2022-09-24T18:35:36.638Z,94007.66
2022-09-24T18:40:40.455Z,94002.44
2022-09-24T18:45:43.594Z,94012.34
2022-09-24T18:50:46.705Z,94017.13
2022-09-24T18:55:50.296Z,94012.69
2022-09-24T19:00:59.435Z,94015.03
2022-09-24T19:06:05.115Z,94012.66
2022-09-24T19:11:14.118Z,94019.47
2022-09-24T19:16:19.927Z,94015.22
2022-09-24T19:21:24.536Z,94013.34
2022-09-24T19:26:32.655Z,94012.22
2022-09-24T19:31:38.607Z,94017.00
2022-09-24T19:36:43.424Z,94016.69
2022-09-24T19:41:47.588Z,94016.00
2022-09-24T19:46:50.924Z,94021.91
2022-09-24T19:51:54.049Z,94022.25
2022-09-24T19:56:57.588Z,94025.75
2022-09-24T20:02:03.257Z,94029.09
2022-09-24T20:07:06.809Z,94033.50
2022-09-24T20:12:16.638Z,94023.81
2022-09-24T20:17:19.734Z,94032.84
2022-09-24T20:22:24.421Z,94028.78
2022-09-24T20:27:46.448Z,94023.78
2022-09-24T20:32:49.787Z,94029.75
2022-09-24T20:37:53.409Z,94028.22
2022-09-24T20:42:56.635Z,94033.06
2022-09-24T20:47:59.590Z,94026.34
2022-09-24T20:53:03.772Z,94027.16
2022-09-24T20:58:07.903Z,94029.53
2022-09-24T21:03:32.223Z,94022.47
2022-09-24T21:08:40.848Z,94032.31
2022-09-24T21:13:51.828Z,94031.59
2022-09-24T21:18:55.984Z,94036.75
2022-09-24T21:24:00.699Z,94025.38
2022-09-24T21:29:09.334Z,94024.97
2022-09-24T21:34:14.196Z,94012.00
2022-09-24T21:39:24.214Z,94024.19
2022-09-24T21:44:30.642Z,94030.09
2022-09-24T21:49:36.884Z,94035.19
2022-09-24T21:54:40.109Z,94040.72
2022-09-24T22:00:04.007Z,94042.28
2022-09-24T22:05:08.596Z,94037.94
2022-09-24T22:10:12.387Z,94031.25
2022-09-24T22:15:16.625Z,94026.56
2022-09-24T22:20:20.599Z,94021.06
2022-09-24T22:25:24.435Z,94017.94
2022-09-24T22:30:28.907Z,94008.53
2022-09-24T22:35:49.349Z,94010.84
2022-09-24T22:40:52.979Z,94009.69
2022-09-24T22:46:00.509Z,94011.25
2022-09-24T22:51:05.930Z,94009.69
2022-09-24T22:56:15.887Z,93999.88
2022-09-24T23:01:32.204Z,94007.31
2022-09-24T23:06:35.600Z,94007.72
2022-09-24T23:11:39.436Z,94011.28
2022-09-24T23:16:43.510Z,94011.69
2022-09-24T23:21:47.863Z,94018.34
2022-09-24T23:26:54.609Z,94011.28
2022-09-24T23:31:58.211Z,94012.44
2022-09-24T23:37:02.086Z,93999.06
2022-09-24T23:42:06.707Z,93993.22
2022-09-24T23:47:09.692Z,93992.81
2022-09-24T23:52:13.072Z,93971.63
2022-09-24T23:57:16.485Z,93985.72
